createdAt,value
2019-01-28T00:03:48.970Z,6.40
2019-01-28T00:06:36.795Z,6.50
2019-01-28T00:09:45.261Z,5.23
2019-01-28T00:12:14.095Z,7.03
2019-01-28T00:14:44.322Z,6.07
2019-01-28T00:17:13.013Z,4.10
2019-01-28T00:19:41.653Z,5.90
2019-01-28T00:22:10.354Z,5.17
2019-01-28T00:24:58.313Z,5.10
2019-01-28T00:27:46.177Z,5.20
2019-01-28T00:30:14.854Z,5.43
2019-01-28T00:33:02.612Z,4.27
2019-01-28T00:35:50.548Z,4.83
2019-01-28T00:38:38.376Z,5.43
2019-01-28T00:41:46.899Z,5.70
2019-01-28T00:47:22.344Z,5.77
2019-01-28T00:49:51.376Z,6.10
2019-01-28T00:52:39.190Z,4.97
2019-01-28T00:55:47.600Z,3.13
2019-01-28T00:58:35.416Z,5.03
2019-01-28T01:01:23.376Z,4.30
2019-01-28T01:03:52.017Z,5.10
2019-01-28T01:06:20.662Z,3.33
2019-01-28T01:09:08.514Z,9.57
2019-01-28T01:14:24.779Z,2.73
2019-01-28T01:16:53.451Z,3.27
2019-01-28T01:19:41.476Z,2.90
2019-01-28T01:22:29.335Z,5.43
2019-01-28T01:24:57.984Z,2.77
2019-01-28T01:27:45.863Z,3.50
2019-01-28T01:30:33.789Z,4.97
2019-01-28T01:33:02.487Z,4.90
2019-01-28T01:35:50.316Z,3.23
2019-01-28T01:38:39.577Z,3.70
2019-01-28T01:41:08.223Z,5.23
2019-01-28T01:43:56.091Z,3.83
2019-01-28T01:46:44.000Z,2.60
2019-01-28T01:49:12.670Z,2.93
2019-01-28T01:51:41.322Z,2.17
2019-01-28T01:54:09.999Z,7.33
2019-01-28T01:56:57.759Z,2.20
2019-01-28T01:59:45.630Z,2.70
2019-01-28T02:02:33.711Z,3.30
2019-01-28T02:05:23.132Z,4.63
2019-01-28T02:08:11.042Z,2.30
2019-01-28T02:13:13.990Z,2.40
2019-01-28T02:15:42.685Z,2.17
2019-01-28T02:18:30.540Z,3.40
2019-01-28T02:21:18.434Z,2.77
2019-01-28T02:24:06.307Z,2.20
2019-01-28T02:26:54.257Z,1.97
2019-01-28T02:29:42.056Z,3.17
2019-01-28T02:35:04.057Z,2.77
2019-01-28T02:37:51.976Z,4.07
2019-01-28T02:40:20.678Z,3.00
2019-01-28T02:42:49.370Z,2.53
2019-01-28T02:45:18.006Z,1.53
2019-01-28T02:47:46.710Z,3.50
2019-01-28T02:53:09.190Z,1.47
2019-01-28T02:55:56.972Z,1.93
2019-01-28T02:58:44.859Z,2.10
2019-01-28T03:01:13.498Z,2.60
2019-01-28T03:03:42.260Z,2.63
2019-01-28T03:06:11.076Z,2.03
2019-01-28T03:08:39.790Z,1.70
2019-01-28T03:11:10.441Z,3.23
2019-01-28T03:13:39.026Z,2.77
2019-01-28T03:16:07.707Z,1.90
2019-01-28T03:18:55.492Z,3.27
2019-01-28T03:21:24.198Z,2.43
2019-01-28T03:23:52.900Z,2.27
2019-01-28T03:26:21.548Z,2.03
2019-01-28T03:29:09.497Z,1.60
2019-01-28T03:31:57.454Z,1.40
2019-01-28T03:34:45.327Z,1.20
2019-01-28T03:37:33.198Z,2.33
2019-01-28T03:40:21.185Z,1.63
2019-01-28T03:43:29.668Z,1.20
2019-01-28T03:46:17.607Z,2.83
2019-01-28T03:48:46.350Z,2.27
2019-01-28T03:51:15.037Z,2.53
2019-01-28T03:53:43.899Z,2.00
2019-01-28T03:56:31.864Z,5.00
2019-01-28T03:59:00.523Z,2.00
2019-01-28T04:01:29.202Z,2.10
2019-01-28T04:03:57.983Z,2.13
2019-01-28T04:06:45.903Z,2.23
2019-01-28T04:09:14.603Z,1.33
2019-01-28T04:12:02.434Z,0.90
2019-01-28T04:14:50.320Z,2.37
2019-01-28T04:17:19.211Z,1.40
2019-01-28T04:19:47.923Z,2.53
2019-01-28T04:22:16.641Z,2.00
2019-01-28T04:24:45.287Z,1.53
2019-01-28T04:27:33.223Z,1.50
2019-01-28T04:30:21.137Z,1.60
2019-01-28T04:33:09.028Z,2.47
2019-01-28T04:35:37.708Z,1.90
2019-01-28T04:38:25.590Z,1.60
2019-01-28T04:41:13.527Z,3.20
2019-01-28T04:44:01.418Z,1.33
2019-01-28T04:46:49.317Z,1.10
2019-01-28T04:52:24.765Z,1.60
2019-01-28T04:54:53.457Z,2.83
2019-01-28T05:00:49.561Z,1.40
2019-01-28T05:03:18.211Z,2.27
2019-01-28T05:06:06.092Z,1.67
2019-01-28T05:08:34.805Z,1.57
2019-01-28T05:11:22.711Z,2.83
2019-01-28T05:14:10.665Z,2.60
2019-01-28T05:16:58.609Z,2.77
2019-01-28T05:19:27.297Z,1.63
2019-01-28T05:22:15.213Z,1.27
2019-01-28T05:25:03.165Z,2.83
2019-01-28T05:27:31.867Z,1.50
2019-01-28T05:30:00.522Z,1.73
2019-01-28T05:32:29.239Z,1.60
2019-01-28T05:35:17.134Z,1.70
2019-01-28T05:37:45.795Z,1.50
2019-01-28T05:40:54.321Z,1.87
2019-01-28T05:43:42.178Z,1.80
2019-01-28T05:46:10.889Z,1.83
2019-01-28T05:48:58.843Z,2.07
2019-01-28T05:51:27.499Z,3.00
2019-01-28T05:53:56.181Z,2.83
2019-01-28T05:56:44.101Z,2.13
2019-01-28T05:59:12.779Z,2.13
2019-01-28T06:01:41.480Z,1.93
2019-01-28T06:04:29.429Z,2.40
2019-01-28T06:07:17.361Z,1.43
2019-01-28T06:09:46.039Z,3.30
2019-01-28T06:12:34.163Z,1.37
2019-01-28T06:15:02.859Z,1.67
2019-01-28T06:17:50.760Z,1.37
2019-01-28T06:23:13.536Z,4.10
2019-01-28T06:26:01.353Z,1.73
2019-01-28T06:28:30.053Z,1.27
2019-01-28T06:31:18.187Z,2.00
2019-01-28T06:34:06.064Z,1.47
2019-01-28T06:36:53.945Z,2.80
2019-01-28T06:39:41.905Z,1.27
2019-01-28T06:42:29.686Z,1.60
2019-01-28T06:45:17.635Z,0.80
2019-01-28T06:47:47.192Z,1.53
2019-01-28T06:50:56.477Z,1.13
2019-01-28T06:53:44.295Z,1.00
2019-01-28T06:56:32.220Z,1.60
2019-01-28T06:59:01.025Z,3.93
2019-01-28T07:01:50.281Z,1.53
2019-01-28T07:04:19.355Z,1.63
2019-01-28T07:07:07.213Z,1.67
2019-01-28T07:09:55.077Z,1.23
2019-01-28T07:12:23.846Z,2.43
2019-01-28T07:15:11.893Z,1.00
2019-01-28T07:17:59.759Z,1.57
2019-01-28T07:20:47.587Z,1.97
2019-01-28T07:23:35.561Z,1.33
2019-01-28T07:26:04.293Z,1.40
2019-01-28T07:28:52.248Z,3.07
2019-01-28T07:34:35.295Z,2.17
2019-01-28T07:37:04.162Z,1.20
2019-01-28T07:39:52.080Z,1.20
2019-01-28T07:42:39.996Z,1.40
2019-01-28T07:45:48.525Z,1.10
2019-01-28T07:48:36.409Z,1.10
2019-01-28T07:51:44.831Z,1.20
2019-01-28T07:54:13.521Z,6.60
2019-01-28T07:57:01.455Z,1.00
2019-01-28T07:59:49.421Z,3.80
2019-01-28T08:02:37.242Z,0.97
2019-01-28T08:05:45.667Z,1.00
2019-01-28T08:08:14.347Z,0.90
2019-01-28T08:13:17.006Z,1.43
2019-01-28T08:15:45.765Z,1.63
2019-01-28T08:18:33.919Z,3.43
2019-01-28T08:21:21.863Z,0.90
2019-01-28T08:24:09.815Z,1.50
2019-01-28T08:26:57.765Z,2.47
2019-01-28T08:29:26.409Z,2.90
2019-01-28T08:32:14.272Z,2.43
2019-01-28T08:35:02.016Z,1.20
2019-01-28T08:37:30.678Z,1.00
2019-01-28T08:39:59.348Z,1.30
2019-01-28T08:42:28.011Z,1.93
2019-01-28T08:44:56.642Z,2.60
2019-01-28T08:47:25.308Z,1.43
2019-01-28T08:49:54.000Z,1.53
2019-01-28T08:52:22.673Z,1.20
2019-01-28T08:54:51.307Z,0.97
2019-01-28T08:57:19.970Z,1.17
2019-01-28T08:59:48.669Z,1.63
2019-01-28T09:02:17.283Z,1.63
2019-01-28T09:04:45.942Z,0.87
2019-01-28T09:07:14.568Z,1.03
2019-01-28T09:09:43.231Z,2.60
2019-01-28T09:12:11.852Z,3.53
2019-01-28T09:14:40.505Z,1.20
2019-01-28T09:17:09.127Z,1.03
2019-01-28T09:19:37.802Z,1.23
2019-01-28T09:25:54.517Z,2.13
2019-01-28T09:28:42.491Z,1.60
2019-01-28T09:31:30.318Z,1.43
2019-01-28T09:34:18.195Z,1.70
2019-01-28T09:36:46.852Z,4.30
2019-01-28T09:39:15.494Z,1.50
2019-01-28T09:42:03.382Z,1.03
2019-01-28T09:44:51.255Z,3.03
2019-01-28T09:47:39.210Z,4.63
2019-01-28T09:50:47.696Z,1.00
2019-01-28T09:53:16.355Z,5.93
2019-01-28T09:56:04.233Z,2.80
2019-01-28T09:58:32.897Z,1.23
2019-01-28T10:03:56.517Z,4.00
2019-01-28T10:06:25.204Z,1.03
2019-01-28T10:09:13.082Z,1.57
2019-01-28T10:12:01.040Z,1.00
2019-01-28T10:14:48.931Z,1.50
2019-01-28T10:17:36.799Z,1.73
2019-01-28T10:20:45.241Z,1.47
2019-01-28T10:23:33.104Z,1.20
2019-01-28T10:26:20.888Z,1.57
2019-01-28T10:28:49.612Z,0.80
2019-01-28T10:31:18.293Z,0.90
2019-01-28T10:34:06.457Z,2.83
2019-01-28T10:36:36.497Z,3.43
2019-01-28T10:39:25.846Z,0.90
2019-01-28T10:42:13.779Z,0.80
2019-01-28T10:45:01.562Z,1.17
2019-01-28T10:47:49.491Z,1.03
2019-01-28T10:50:37.751Z,1.13
2019-01-28T10:56:14.577Z,2.30
2019-01-28T10:59:02.355Z,0.93
2019-01-28T11:01:31.033Z,1.10
2019-01-28T11:06:47.303Z,1.10
2019-01-28T11:09:35.320Z,1.30
2019-01-28T11:12:23.234Z,1.30
2019-01-28T11:15:11.089Z,3.87
2019-01-28T11:17:39.870Z,3.13
2019-01-28T11:20:50.038Z,1.40
2019-01-28T11:23:18.802Z,2.80
2019-01-28T11:26:08.341Z,1.67
2019-01-28T11:28:56.348Z,1.83
2019-01-28T11:31:45.853Z,3.03
2019-01-28T11:34:33.986Z,1.00
2019-01-28T11:39:59.033Z,1.03
2019-01-28T11:42:46.938Z,1.20
2019-01-28T11:45:55.473Z,2.50
2019-01-28T11:51:18.607Z,1.17
2019-01-28T11:54:06.519Z,1.43
2019-01-28T11:56:54.482Z,2.37
2019-01-28T11:59:42.370Z,4.70
2019-01-28T12:02:34.397Z,1.40
2019-01-28T12:05:19.913Z,0.83
2019-01-28T12:08:28.322Z,2.40
2019-01-28T12:11:16.266Z,1.33
2019-01-28T12:14:04.094Z,2.20
2019-01-28T12:16:51.983Z,1.17
2019-01-28T12:19:39.826Z,3.43
2019-01-28T12:25:22.051Z,1.17
2019-01-28T12:28:09.905Z,3.50
2019-01-28T12:31:18.376Z,2.67
2019-01-28T12:33:47.057Z,1.93
2019-01-28T12:36:34.922Z,3.70
2019-01-28T12:39:45.115Z,3.77
2019-01-28T12:42:13.891Z,5.40
2019-01-28T12:45:01.743Z,1.50
2019-01-28T12:47:49.694Z,3.23
2019-01-28T12:50:58.170Z,1.60
2019-01-28T12:53:46.065Z,2.57
2019-01-28T12:56:34.015Z,1.17
2019-01-28T12:59:21.932Z,3.60
2019-01-28T13:02:09.874Z,2.20
2019-01-28T13:04:57.773Z,3.80
2019-01-28T13:07:45.648Z,6.00
2019-01-28T13:10:54.065Z,3.50
2019-01-28T13:13:22.766Z,7.30
2019-01-28T13:18:27.000Z,6.13
2019-01-28T13:21:14.840Z,4.60
2019-01-28T13:24:02.785Z,4.67
2019-01-28T13:26:50.702Z,1.93
2019-01-28T13:29:38.651Z,2.37
2019-01-28T13:32:47.145Z,4.67
2019-01-28T13:38:10.509Z,3.63
2019-01-28T13:40:58.380Z,2.50
2019-01-28T13:43:27.154Z,8.73
2019-01-28T13:46:15.174Z,3.03
2019-01-28T13:49:03.135Z,1.90
2019-01-28T13:51:51.061Z,3.80
2019-01-28T13:54:39.009Z,1.77
2019-01-28T13:57:26.842Z,4.97
2019-01-28T14:00:14.621Z,3.60
2019-01-28T14:08:12.497Z,8.07
2019-01-28T14:11:00.309Z,2.87
2019-01-28T14:13:48.245Z,1.87
2019-01-28T14:19:30.863Z,4.43
2019-01-28T14:22:18.706Z,2.80
2019-01-28T14:25:06.535Z,10.90
2019-01-28T14:27:35.230Z,3.67
2019-01-28T14:33:18.071Z,4.23
2019-01-28T14:36:07.402Z,4.33
2019-01-28T14:38:55.218Z,4.17
2019-01-28T14:41:43.162Z,8.03
2019-01-28T14:44:31.004Z,9.10
2019-01-28T14:46:59.732Z,5.73
2019-01-28T14:49:54.512Z,4.60
2019-01-28T14:52:18.091Z,6.10
2019-01-28T14:55:06.008Z,4.23
2019-01-28T14:58:16.450Z,6.33
2019-01-28T15:01:24.676Z,3.37
2019-01-28T15:03:53.451Z,7.43
2019-01-28T15:06:22.212Z,2.90
2019-01-28T15:08:50.906Z,6.70
2019-01-28T15:13:54.267Z,4.57
2019-01-28T15:16:22.934Z,8.07
2019-01-28T15:18:51.635Z,3.87
2019-01-28T15:21:39.472Z,7.77
2019-01-28T15:26:43.450Z,4.53
2019-01-28T15:29:12.196Z,5.90
2019-01-28T15:32:00.050Z,3.70
2019-01-28T15:34:28.710Z,3.23
2019-01-28T15:36:57.355Z,4.90
2019-01-28T15:39:45.305Z,6.57
2019-01-28T15:42:14.007Z,8.77
2019-01-28T15:44:42.677Z,3.50
2019-01-28T15:47:11.583Z,5.03
2019-01-28T15:49:40.255Z,5.07
2019-01-28T15:52:09.026Z,4.50
2019-01-28T15:54:37.685Z,4.50
2019-01-28T15:57:06.371Z,5.00
2019-01-28T15:59:35.080Z,4.90
2019-01-28T16:02:03.885Z,5.20
2019-01-28T16:04:32.612Z,3.17
2019-01-28T16:07:01.340Z,5.80
2019-01-28T16:09:30.039Z,3.17
2019-01-28T16:11:58.757Z,4.70
2019-01-28T16:14:27.462Z,5.67
2019-01-28T16:16:56.157Z,3.43
2019-01-28T16:19:24.796Z,3.43
2019-01-28T16:21:53.513Z,4.70
2019-01-28T16:24:22.169Z,3.17
2019-01-28T16:26:50.984Z,3.50
2019-01-28T16:29:19.684Z,3.63
2019-01-28T16:31:48.388Z,3.00
2019-01-28T16:34:17.047Z,6.57
2019-01-28T16:36:45.752Z,3.10
2019-01-28T16:39:14.495Z,4.00
2019-01-28T16:41:50.258Z,8.87
2019-01-28T16:44:18.920Z,3.03
2019-01-28T16:46:47.611Z,4.10
2019-01-28T16:49:16.268Z,3.60
2019-01-28T16:51:44.976Z,3.80
2019-01-28T16:54:13.636Z,3.90
2019-01-28T16:56:42.327Z,3.67
2019-01-28T16:59:11.056Z,4.00
2019-01-28T17:01:39.720Z,5.00
2019-01-28T17:04:08.514Z,3.10
2019-01-28T17:06:37.199Z,4.83
2019-01-28T17:09:45.636Z,3.53
2019-01-28T17:12:14.399Z,5.63
2019-01-28T17:14:43.057Z,4.07
2019-01-28T17:17:11.741Z,3.53
2019-01-28T17:19:40.447Z,5.57
2019-01-28T17:22:09.137Z,4.63
2019-01-28T17:24:37.800Z,4.30
2019-01-28T17:27:06.491Z,4.50
2019-01-28T17:29:35.139Z,6.37
2019-01-28T17:32:03.853Z,4.27
2019-01-28T17:34:32.614Z,3.43
2019-01-28T17:39:55.656Z,4.70
2019-01-28T17:42:24.319Z,4.70
2019-01-28T17:44:53.002Z,5.00
2019-01-28T17:47:21.775Z,4.13
2019-01-28T17:49:50.483Z,5.47
2019-01-28T17:52:19.213Z,5.23
2019-01-28T17:54:47.871Z,6.90
2019-01-28T17:57:16.579Z,8.57
2019-01-28T17:59:45.308Z,4.80
2019-01-28T18:02:13.996Z,9.00
2019-01-28T18:04:42.656Z,6.63
2019-01-28T18:07:11.454Z,8.93
2019-01-28T18:09:40.090Z,6.23
2019-01-28T18:12:08.788Z,7.10
2019-01-28T18:14:37.492Z,7.90
2019-01-28T18:17:06.148Z,8.83
2019-01-28T18:22:10.493Z,11.77
2019-01-28T18:24:39.193Z,8.20
2019-01-28T18:27:07.901Z,7.90
2019-01-28T18:29:36.542Z,7.60
2019-01-28T18:32:05.310Z,11.40
2019-01-28T18:34:34.004Z,9.50
2019-01-28T18:40:50.684Z,8.20
2019-01-28T18:43:19.350Z,11.60
2019-01-28T18:45:48.050Z,10.40
2019-01-28T18:48:16.911Z,7.23
2019-01-28T18:50:45.601Z,8.70
2019-01-28T18:53:14.300Z,10.67
2019-01-28T18:55:43.199Z,9.53
2019-01-28T18:58:11.887Z,6.37
2019-01-28T19:00:40.565Z,14.43
2019-01-28T19:03:09.273Z,12.70
2019-01-28T19:05:57.038Z,14.83
2019-01-28T19:08:44.871Z,12.60
2019-01-28T19:14:08.445Z,12.37
2019-01-28T19:16:56.234Z,13.20
2019-01-28T19:19:44.069Z,16.70
2019-01-28T19:22:12.841Z,12.93
2019-01-28T19:24:41.497Z,12.00
2019-01-28T19:27:10.213Z,13.20
2019-01-28T19:29:38.949Z,13.50
2019-01-28T19:32:07.732Z,13.30
2019-01-28T19:34:36.398Z,15.23
2019-01-28T19:37:05.086Z,16.60
2019-01-28T19:39:33.771Z,12.70
2019-01-28T19:42:02.437Z,14.40
2019-01-28T19:44:31.138Z,14.60
2019-01-28T19:46:59.918Z,13.50
2019-01-28T19:49:28.624Z,20.77
2019-01-28T19:52:17.388Z,15.27
2019-01-28T20:17:53.174Z,19.33
2019-01-28T20:20:21.821Z,19.97
2019-01-28T20:22:50.558Z,36.87
2019-01-28T20:25:59.000Z,21.10
2019-01-28T20:28:27.759Z,17.87
2019-01-28T20:30:56.450Z,32.07
2019-01-28T20:33:25.164Z,25.17
2019-01-28T20:35:53.826Z,27.43
2019-01-28T20:38:22.705Z,19.50
2019-01-28T20:40:51.403Z,20.33
2019-01-28T20:43:24.182Z,20.83
2019-01-28T20:45:50.547Z,22.40
2019-01-28T20:48:19.273Z,23.87
2019-01-28T20:50:47.962Z,20.47
2019-01-28T20:53:16.625Z,17.70
2019-01-28T20:55:45.312Z,22.80
2019-01-28T20:58:13.960Z,25.47
2019-01-28T21:00:42.679Z,19.87
2019-01-28T21:03:11.339Z,19.03
2019-01-28T21:05:40.002Z,21.87
2019-01-28T21:08:08.708Z,27.53
2019-01-28T21:10:37.552Z,18.47
2019-01-28T21:13:46.027Z,19.40
2019-01-28T21:16:14.734Z,19.53
2019-01-28T21:18:43.432Z,17.87
2019-01-28T21:21:12.166Z,21.17
2019-01-28T21:23:40.877Z,19.33
2019-01-28T21:26:09.579Z,22.47
2019-01-28T21:28:38.226Z,22.80
2019-01-28T21:31:07.015Z,27.20
2019-01-28T21:33:35.680Z,23.03
2019-01-28T21:38:59.203Z,18.20
2019-01-28T21:41:27.870Z,18.17
2019-01-28T21:43:56.541Z,20.43
2019-01-28T21:46:25.326Z,20.73
2019-01-28T21:48:53.983Z,18.67
2019-01-28T21:51:22.786Z,27.00
2019-01-28T21:53:51.463Z,22.17
2019-01-28T21:56:20.113Z,26.43
2019-01-28T21:58:48.803Z,16.03
2019-01-28T22:01:17.509Z,14.67
2019-01-28T22:03:46.250Z,20.43
2019-01-28T22:06:14.936Z,13.60
2019-01-28T22:08:43.600Z,20.57
2019-01-28T22:11:12.308Z,18.97
2019-01-28T22:13:41.131Z,14.47
2019-01-28T22:16:09.845Z,16.47
2019-01-28T22:18:38.512Z,20.03
2019-01-28T22:23:42.715Z,16.67
2019-01-28T22:26:11.427Z,15.37
2019-01-28T22:28:40.067Z,15.43
2019-01-28T22:31:08.717Z,14.77
2019-01-28T22:33:37.423Z,15.40
2019-01-28T22:36:06.116Z,12.50
2019-01-28T22:38:34.822Z,19.37
2019-01-28T22:41:03.488Z,25.10
2019-01-28T22:43:32.201Z,15.40
2019-01-28T22:46:00.903Z,19.57
2019-01-28T22:49:09.386Z,17.97
2019-01-28T22:51:38.065Z,15.20
2019-01-28T22:54:06.771Z,18.43
2019-01-28T22:56:35.436Z,16.37
2019-01-28T23:01:58.716Z,15.67
2019-01-28T23:04:27.364Z,15.20
2019-01-28T23:06:56.089Z,17.53
2019-01-28T23:09:24.749Z,17.40
2019-01-28T23:11:53.527Z,17.00
2019-01-28T23:14:22.215Z,13.60
2019-01-28T23:16:50.921Z,20.80
2019-01-28T23:19:19.580Z,17.93
2019-01-28T23:21:48.279Z,15.03
2019-01-28T23:24:36.182Z,12.30
2019-01-28T23:27:04.848Z,14.40
2019-01-28T23:29:33.543Z,13.33
2019-01-28T23:32:02.312Z,14.53
2019-01-28T23:34:31.048Z,14.77
2019-01-28T23:36:59.710Z,23.73
2019-01-28T23:39:28.420Z,18.60
2019-01-28T23:41:57.076Z,15.67
2019-01-28T23:44:25.856Z,12.07
2019-01-28T23:46:54.521Z,15.47
2019-01-28T23:49:23.301Z,16.40
2019-01-28T23:51:51.949Z,22.43
2019-01-28T23:54:20.713Z,12.97
2019-01-28T23:56:49.441Z,15.67
2019-01-28T23:59:18.131Z,14.90
